Sacramento International Airport
KSMF : now visible

Airfield :











YOU CAN JOIN US ON...

 
LOGIN :

Register | Disclaimer

   EN    FR    IT 

 









Legend :    VFR   Marginal VFR   IFR   Intensive IFR   Very Intensive IFR
Visi :
Ceiling :
>= 8 km
>= 3000ft
5 to 8 km
1000 to 3000 ft
1500m to 5 km
500 to 1000 ft
800 to 1500m
200 to 500 ft
< 800m
< 200 ft
Symbols :   Thunderstorms  Fog  Heavy snow  Heavy precipitations  Wind > 20 kt






- Airport Elevation : 27 ft
- IATA code : SMF


KSMF - Sacramento International

CURRENT METAR :
  • 280853Z 10003KT 10SM FEW250 09/07 A3014 RMK AO2 SLP206 T00940067 58004

EXPIRED METARs :
  • 280753Z 06004KT 10SM FEW250 09/05 A3014 RMK AO2 SLP207 T00890050 402500056
  • 280653Z 00000KT 10SM FEW250 12/06 A3016 RMK AO2 SLP211 T01170061

TAF KSMF
Valid from the 28 at 06:00 until the 29 at 06:00 UTC


280520Z 2806/2906 VRB04KT P6SM FEW250
FM282100 18005KT P6SM BKN250



MET'MAP, your aeronautical weather chart ! - Copyright ORBIFLY December 2007 - Disclaimer

ORBIFLY MET'MAP TEAM :

Programming & Development : Alexandra Zaïnal
Concept & original design : Baudouin d'Aumeries
Assistance for programming : Marc-Olivier Méhu
Technical & hardware support : Manuel Goepfert

Contact : metmap@orbifly.com




SOURCES & CREDITS :

   NOAA       Earth
Advisory